Fall Rock, KY (40932)

9:14 AM EDT on July 12, 2014 (GMT -0400)
Southern McKee (KKYMCKEE2) Elev 1138 ft | 37.36 °N, 83.94 °W | Change Station

Current weather conditions updated 3 seconds ago

Rain
Rain
71.7 °F
Feels Like 71.7 °F
N
0.0
Wind Variable Wind from SSE
Gusts 0.0 mph

Today is forecast to be nearly the same temperature as yesterday.

Today
High -- | Low -- °F
--% Chance of Precip.
Yesterday
High -- | Low -- °F
Precip. -- in
6:24 AM 8:56 PM
Full, 100% visible
Pressure 30.18 in
Visibility 10.0 miles
Clouds Clear
Dew Point 68 °F
Humidity 87%
Rainfall 0.02 in
Snow Depth Not available.
UV 2 out of 12
Pollen 3.00 out of 12
Air Quality Not available.
Flu Activity Sporadic
METAR KLOZ 121253Z AUTO 17003KT 10SM CLR 22/17 A3022 RMK AO2 SLP220 T02170172

More Conditions Fewer Conditions

Pressure 30.18 in
Visibility 10.0 miles
Clouds Clear
Dew Point 68 °F
Humidity 87%
Rainfall 0.02 in
Snow Depth Not available.
UV 2 out of 12
Pollen 3.00 out of 12
Air Quality Not available.
Flu Activity Sporadic
METAR KLOZ 121253Z AUTO 17003KT 10SM CLR 22/17 A3022 RMK AO2 SLP220 T02170172

More Conditions Fewer Conditions

10-Day Weather Forecast

Almanac

Astronomy

Jul. 12, 2014 Rise Set
Actual Time 6:24 AM EDT 8:56 PM EDT
Civil Twilight 5:54 AM EDT 9:26 PM EDT
Nautical Twilight 5:16 AM EDT 10:04 PM EDT
Astronomical Twilight 4:35 AM EDT 10:45 PM EDT
Moon 9:00 PM EDT 6:41 AM EDT
Length of Visible Light 15h 32m
Length of Day
14h 31m
Tomorrow will be 1m 6s shorter.
Full, 100% of the Moon is Illuminated
Today
Full
Jul 18
Last Quarter
Jul 26
New
Aug 3
First Quarter
Aug 10
Full

Today's Extremes

State Highs State Lows

Community

WunderPhotos

Upload Photos

1,732,816 photos uploaded!

WunderBlogs® & News

Nearby

Snow Depth

Station Depth Elevation
No new snow has been reported.

Earthquake Activity

City Distance Mag. Time & Date
No recent earthquake activity has been reported nearby.
Minimum magnitude displayed is 2.5.

Coastal Water Temperatures

Place Temperature
No Stations Reporting

Nearby Weather Stations

Station Location Temp. Heat Index Dew Point Humidity Wind Precip. Elev Updated Type
RAWS PEABODY KY, Big Creek, KY 64 °F - 63 °F 96% North  at  0 mph 0.00 in / hr 1464 ft 8:01 AM EDT MADIS
Southern McKee, McKee, KY 71.7 °F - 68 °F 87% SSE  at  0.0 mph 0.02 in / hr 1138 ft 9:14 AM EDT Rapid Fire
MSWO, London, KY 71.2 °F 71 °F 66 °F 83% South  at  1.1 mph 0.00 in / hr 1163 ft 9:14 AM EDT Rapid Fire
Talbert, KY 66.1 °F - 65 °F 97% North  at  0.0 mph 0.00 in / hr 994 ft 9:10 AM EDT Normal

Show More Stations Show Fewer Stations